CMA CGM Musca — 2CAC8 — position and weather

sailwx.info

Track history (hours):
 
Tides and Currents Weather Stations Pressure Air Temp Water Temp Dewpoint Dewpoint Depression Visibility Wind Speed Wind Dir Waves Ship Positions

CMA CGM Musca

Last reported at 2016-Feb-04 05:14 UTC. Time now 2016-Feb-11 02:28 UTC.
Position N 02°04' E 102°07'.

Length 347 m; draft 13.7 m.

Type: Ship (hazmat cat A). MMSI: 235070914.

Date/timePositionNaut miles runAvg speedWind from/ knotsBaromVisibWave heightAir tempDewpointWater temp
2016-Feb-04 05:14N 02°04' E 102°07'1218.2
2016-Feb-04 04:33N 01°56' E 102°16'1818.5
2016-Feb-04 03:33N 01°48' E 102°33'1918.8
2016-Feb-04 02:33N 01°39' E 102°50'5716.6
2016-Feb-03 23:09N 01°11' E 103°39'812.0
2016-Feb-03 22:30N 01°09' E 103°46'1414.6
2016-Feb-03 21:34N 01°15' E 103°59'  
2016-Jan-31 05:28N 21°58' E 114°22'2412.6
2016-Jan-31 03:33N 22°17' E 114°06'4 0.2
2016-Jan-30 08:18N 22°21' E 114°05'1810.0
2016-Jan-30 06:32N 22°08' E 114°18'10 9.9
2016-Jan-30 05:32N 22°14' E 114°27'23 7.0
2016-Jan-30 02:18N 22°34' E 114°16'0 0.0
2016-Jan-29 21:03N 22°34' E 114°16'0 0.0
2016-Jan-29 20:21N 22°34' E 114°16'0 0.0
2016-Jan-29 17:26N 22°34' E 114°16'0 0.3
2016-Jan-29 16:33N 22°34' E 114°17'60617.3
2016-Jan-28 05:32N 29°25' E 122°31'1717.2
2016-Jan-28 04:33N 29°41' E 122°25'1313.2
2016-Jan-28 03:34N 29°49' E 122°13'1211.8
2016-Jan-28 02:34N 29°55' E 122°02'5 4.6
2016-Jan-28 01:28N 29°56' E 121°56'0 0.0
2016-Jan-28 00:27N 29°56' E 121°56'0 0.0
2016-Jan-27 23:27N 29°56' E 121°56'0 0.0
2016-Jan-27 22:32N 29°56' E 121°56'0 0.0
2016-Jan-27 21:32N 29°56' E 121°56'0 0.0
2016-Jan-27 20:32N 29°56' E 121°56'0 0.0
2016-Jan-27 18:19N 29°56' E 121°56'0 0.0
2016-Jan-27 17:06N 29°56' E 121°56'0 0.0
2016-Jan-27 08:17N 29°56' E 121°56'0 0.0
2016-Jan-27 07:26N 29°56' E 121°56'0 0.0
2016-Jan-27 04:31N 29°56' E 121°56'0 0.0
2016-Jan-27 03:30N 29°56' E 121°56'0 0.0
2016-Jan-27 02:33N 29°56' E 121°56'0 0.0
2016-Jan-27 01:33N 29°56' E 121°56'1 0.6
2016-Jan-27 00:33N 29°57' E 121°56'8 8.5
2016-Jan-26 23:33N 29°56' E 122°06'1211.5
2016-Jan-26 22:32N 29°48' E 122°16'1212.0
2016-Jan-26 21:32N 29°43' E 122°29'3 0.6
2016-Jan-26 16:17N 29°45' E 122°32'  
Track history (hours):
 
Tides and Currents Weather Stations Pressure Air Temp Water Temp Dewpoint Dewpoint Depression Visibility Wind Speed Wind Dir Waves Ship Positions

CMA CGM Musca

Last reported at 2016-Feb-04 05:14 UTC. Time now 2016-Feb-11 02:28 UTC.
Position N 02°04' E 102°07'.

Length 347 m; draft 13.7 m.

Type: Ship (hazmat cat A). MMSI: 235070914.

Date/timePositionNaut miles runAvg speedWind from/ knotsBaromVisibWave heightAir tempDewpointWater temp
2016-Feb-04 05:14N 02°04' E 102°07'1218.2
2016-Feb-04 04:33N 01°56' E 102°16'1818.5
2016-Feb-04 03:33N 01°48' E 102°33'1918.8
2016-Feb-04 02:33N 01°39' E 102°50'5716.6
2016-Feb-03 23:09N 01°11' E 103°39'812.0
2016-Feb-03 22:30N 01°09' E 103°46'1414.6
2016-Feb-03 21:34N 01°15' E 103°59'  
2016-Jan-31 05:28N 21°58' E 114°22'2412.6
2016-Jan-31 03:33N 22°17' E 114°06'4 0.2
2016-Jan-30 08:18N 22°21' E 114°05'1810.0
2016-Jan-30 06:32N 22°08' E 114°18'10 9.9
2016-Jan-30 05:32N 22°14' E 114°27'23 7.0
2016-Jan-30 02:18N 22°34' E 114°16'0 0.0
2016-Jan-29 21:03N 22°34' E 114°16'0 0.0
2016-Jan-29 20:21N 22°34' E 114°16'0 0.0
2016-Jan-29 17:26N 22°34' E 114°16'0 0.3
2016-Jan-29 16:33N 22°34' E 114°17'60617.3
2016-Jan-28 05:32N 29°25' E 122°31'1717.2
2016-Jan-28 04:33N 29°41' E 122°25'1313.2
2016-Jan-28 03:34N 29°49' E 122°13'1211.8
2016-Jan-28 02:34N 29°55' E 122°02'5 4.6
2016-Jan-28 01:28N 29°56' E 121°56'0 0.0
2016-Jan-28 00:27N 29°56' E 121°56'0 0.0
2016-Jan-27 23:27N 29°56' E 121°56'0 0.0
2016-Jan-27 22:32N 29°56' E 121°56'0 0.0
2016-Jan-27 21:32N 29°56' E 121°56'0 0.0
2016-Jan-27 20:32N 29°56' E 121°56'0 0.0
2016-Jan-27 18:19N 29°56' E 121°56'0 0.0
2016-Jan-27 17:06N 29°56' E 121°56'0 0.0
2016-Jan-27 08:17N 29°56' E 121°56'0 0.0
2016-Jan-27 07:26N 29°56' E 121°56'0 0.0
2016-Jan-27 04:31N 29°56' E 121°56'0 0.0
2016-Jan-27 03:30N 29°56' E 121°56'0 0.0
2016-Jan-27 02:33N 29°56' E 121°56'0 0.0
2016-Jan-27 01:33N 29°56' E 121°56'1 0.6
2016-Jan-27 00:33N 29°57' E 121°56'8 8.5
2016-Jan-26 23:33N 29°56' E 122°06'1211.5
2016-Jan-26 22:32N 29°48' E 122°16'1212.0
2016-Jan-26 21:32N 29°43' E 122°29'3 0.6
2016-Jan-26 16:17N 29°45' E 122°32'  

Dump ship's entire track history